Terminal Aerodrome Forecast
Issued by NWS Upton, NY

Home | Current Version | Previous Version | Text Only | Print | Product List | Glossary On
Versions: 1 2 3 4 5 6 7 8 9 10 11 12 13 14 15 16 17 18 19 20 21 22 23 24 25 26 27 28 29 30 31 32 33 34
707
FTUS41 KOKX 281305 AAA
TAFJFK
TAF AMD
KJFK 281305Z 2813/2918 05012KT P6SM BKN010 BKN040
      TEMPO 2813/2815 SCT010
     FM281500 05012G17KT P6SM OVC025
     FM281800 05014G21KT P6SM -DZ OVC020
     FM290300 05014G21KT P6SM -DZ OVC015=

USA.gov is the U.S. government's official web portal to all federal, state and local government web resources and services.